FHY561 LTAI-LJLJ
Flight info
| Callsign | FHY561 |
|---|---|
| Flight time | 2h 15m |
| Altitude | 36000 |
| Route | NESIL UN135 IMR UN127 LMO UN128 FSK UL608 DISOR DCT LONTA UL608 DOLEV DCT PODOB DCT LURID DCT GORPA GORPA1L |
| Aircraft | A320/M-SDE3FGHIRWY/LB1 |
Departure
| Time | 2026-05-04 12:35 |
|---|---|
| Airport | Antalya International Airport (LTAI) |
Arrival
| Time | 2026-05-04 14:50 |
|---|---|
| Airport | Ljubljana Jože Pučnik Airport (LJLJ) |
| Time | Latitude | Longitude | Altitude | Speed | Heading |
|---|---|---|---|---|---|
| 2026-05-04 12:06 | 36.88965 | 30.80011 | 176 ft | 0 kts | 275° |
| 2026-05-04 12:26 | 36.88963 | 30.80034 | 176 ft | 4 kts | 271° |
| 2026-05-04 12:26 | 36.88966 | 30.80065 | 176 ft | 4 kts | 238° |
| 2026-05-04 12:26 | 36.88977 | 30.80077 | 176 ft | 0 kts | 186° |
| 2026-05-04 12:29 | 36.88974 | 30.80077 | 176 ft | 3 kts | 186° |
| 2026-05-04 12:30 | 36.88906 | 30.80067 | 176 ft | 12 kts | 186° |
| 2026-05-04 12:30 | 36.88842 | 30.80082 | 176 ft | 9 kts | 109° |
| 2026-05-04 12:30 | 36.88833 | 30.80150 | 176 ft | 9 kts | 96° |
| 2026-05-04 12:30 | 36.88825 | 30.80245 | 176 ft | 13 kts | 96° |
| 2026-05-04 12:31 | 36.88813 | 30.80380 | 176 ft | 18 kts | 96° |
| 2026-05-04 12:31 | 36.88798 | 30.80548 | 176 ft | 16 kts | 103° |
| 2026-05-04 12:31 | 36.88713 | 30.80571 | 176 ft | 15 kts | 188° |
| 2026-05-04 12:31 | 36.88590 | 30.80549 | 176 ft | 20 kts | 188° |
| 2026-05-04 12:32 | 36.88443 | 30.80536 | 176 ft | 20 kts | 186° |
| 2026-05-04 12:32 | 36.88157 | 30.80511 | 176 ft | 15 kts | 141° |
| 2026-05-04 12:32 | 36.88136 | 30.80642 | 175 ft | 17 kts | 97° |
| 2026-05-04 12:33 | 36.88185 | 30.80736 | 176 ft | 13 kts | 5° |
| 2026-05-04 12:33 | 36.88209 | 30.80739 | 176 ft | 0 kts | 6° |
| 2026-05-04 12:34 | 36.88256 | 30.80745 | 176 ft | 32 kts | 6° |
| 2026-05-04 12:34 | 36.88765 | 30.80814 | 178 ft | 114 kts | 6° |
| 2026-05-04 12:35 | 36.89786 | 30.80957 | 226 ft | 173 kts | 6° |
| 2026-05-04 12:35 | 36.91046 | 30.81164 | 773 ft | 192 kts | 12° |
| 2026-05-04 12:35 | 36.92306 | 30.81902 | 1423 ft | 210 kts | 32° |
| 2026-05-04 12:35 | 36.93570 | 30.82997 | 2044 ft | 233 kts | 35° |
| 2026-05-04 12:36 | 36.94929 | 30.84228 | 2618 ft | 250 kts | 36° |
| 2026-05-04 12:36 | 36.96358 | 30.85531 | 3202 ft | 259 kts | 36° |
| 2026-05-04 12:36 | 36.97823 | 30.86867 | 3866 ft | 264 kts | 36° |
| 2026-05-04 12:36 | 36.99268 | 30.88298 | 4512 ft | 267 kts | 47° |
| 2026-05-04 12:37 | 37.00181 | 30.90315 | 5168 ft | 271 kts | 76° |
| 2026-05-04 12:37 | 37.00309 | 30.92663 | 5831 ft | 273 kts | 93° |
| 2026-05-04 12:37 | 37.00155 | 30.95047 | 6488 ft | 276 kts | 95° |
| 2026-05-04 12:37 | 36.99933 | 30.97448 | 7144 ft | 278 kts | 103° |
| 2026-05-04 12:38 | 36.99108 | 30.99624 | 7799 ft | 281 kts | 130° |
| 2026-05-04 12:38 | 36.97576 | 31.01112 | 8452 ft | 283 kts | 157° |
| 2026-05-04 12:38 | 36.95658 | 31.01595 | 9116 ft | 284 kts | 181° |
| 2026-05-04 12:38 | 36.93673 | 31.01459 | 9770 ft | 287 kts | 185° |
| 2026-05-04 12:39 | 36.91673 | 31.01239 | 10434 ft | 291 kts | 186° |
| 2026-05-04 12:39 | 36.89639 | 31.01003 | 11085 ft | 296 kts | 186° |
| 2026-05-04 12:39 | 36.87567 | 31.00761 | 11741 ft | 302 kts | 186° |
| 2026-05-04 12:39 | 36.85465 | 31.00514 | 12394 ft | 306 kts | 186° |
| 2026-05-04 12:40 | 36.83329 | 31.00262 | 13051 ft | 310 kts | 186° |
| 2026-05-04 12:40 | 36.81175 | 30.99984 | 13703 ft | 313 kts | 190° |
| 2026-05-04 12:40 | 36.79131 | 30.99084 | 14350 ft | 313 kts | 212° |
| 2026-05-04 12:40 | 36.77494 | 30.97309 | 15007 ft | 313 kts | 233° |
| 2026-05-04 12:41 | 36.76514 | 30.94905 | 15658 ft | 313 kts | 255° |
| 2026-05-04 12:41 | 36.76324 | 30.92220 | 16312 ft | 312 kts | 277° |
| 2026-05-04 12:41 | 36.76943 | 30.89644 | 16960 ft | 311 kts | 298° |
| 2026-05-04 12:41 | 36.78063 | 30.87341 | 17617 ft | 310 kts | 302° |
| 2026-05-04 12:42 | 36.79193 | 30.85085 | 18262 ft | 309 kts | 302° |
| 2026-05-04 12:42 | 36.79961 | 30.83550 | 18693 ft | 308 kts | 302° |
| 2026-05-04 12:42 | 36.81471 | 30.80529 | 19572 ft | 305 kts | 302° |
| 2026-05-04 12:42 | 36.82573 | 30.78318 | 20214 ft | 302 kts | 301° |
| 2026-05-04 12:43 | 36.83673 | 30.76101 | 20864 ft | 298 kts | 301° |
| 2026-05-04 12:43 | 36.84754 | 30.73916 | 21513 ft | 292 kts | 301° |
| 2026-05-04 12:43 | 36.85812 | 30.71772 | 22067 ft | 292 kts | 301° |
| 2026-05-04 12:43 | 36.86904 | 30.69561 | 22191 ft | 306 kts | 301° |
| 2026-05-04 12:44 | 36.87657 | 30.68036 | 22278 ft | 315 kts | 301° |
| 2026-05-04 12:44 | 36.88831 | 30.65655 | 22416 ft | 328 kts | 301° |
| 2026-05-04 12:44 | 36.90051 | 30.63175 | 22536 ft | 342 kts | 301° |
| 2026-05-04 12:44 | 36.91320 | 30.60597 | 22671 ft | 355 kts | 301° |
| 2026-05-04 12:45 | 36.92640 | 30.57924 | 22797 ft | 367 kts | 301° |
| 2026-05-04 12:45 | 36.94006 | 30.55163 | 22929 ft | 380 kts | 301° |
| 2026-05-04 12:45 | 36.95435 | 30.52269 | 23057 ft | 392 kts | 301° |
| 2026-05-04 12:45 | 36.96868 | 30.49361 | 23187 ft | 404 kts | 301° |
| 2026-05-04 12:46 | 36.98361 | 30.46329 | 23307 ft | 414 kts | 301° |
| 2026-05-04 12:46 | 36.99892 | 30.43214 | 23448 ft | 424 kts | 301° |
| 2026-05-04 12:46 | 37.01443 | 30.40050 | 23715 ft | 429 kts | 301° |
| 2026-05-04 12:46 | 37.03011 | 30.36844 | 23993 ft | 433 kts | 301° |
| 2026-05-04 12:47 | 37.04585 | 30.33618 | 24315 ft | 436 kts | 301° |
| 2026-05-04 12:47 | 37.06171 | 30.30368 | 24682 ft | 438 kts | 301° |
| 2026-05-04 12:47 | 37.07764 | 30.27114 | 25017 ft | 440 kts | 301° |
| 2026-05-04 12:47 | 37.09360 | 30.23856 | 25314 ft | 442 kts | 301° |
| 2026-05-04 12:48 | 37.10972 | 30.20562 | 25611 ft | 445 kts | 301° |
| 2026-05-04 12:48 | 37.12586 | 30.17249 | 25920 ft | 447 kts | 301° |
| 2026-05-04 12:48 | 37.14206 | 30.13913 | 26193 ft | 450 kts | 301° |
| 2026-05-04 12:48 | 37.15836 | 30.10557 | 26464 ft | 452 kts | 301° |
| 2026-05-04 12:49 | 37.17475 | 30.07179 | 26710 ft | 455 kts | 301° |
| 2026-05-04 12:49 | 37.19123 | 30.03780 | 26984 ft | 457 kts | 301° |
| 2026-05-04 12:49 | 37.20783 | 30.00356 | 27252 ft | 459 kts | 301° |
| 2026-05-04 12:49 | 37.22446 | 29.96921 | 27460 ft | 461 kts | 301° |
| 2026-05-04 12:50 | 37.24112 | 29.93474 | 27708 ft | 463 kts | 301° |
| 2026-05-04 12:50 | 37.25757 | 29.90061 | 27994 ft | 463 kts | 301° |
| 2026-05-04 12:50 | 37.27429 | 29.86588 | 28254 ft | 464 kts | 301° |
| 2026-05-04 12:50 | 37.29105 | 29.83106 | 28486 ft | 465 kts | 301° |
| 2026-05-04 12:51 | 37.30784 | 29.79622 | 28713 ft | 466 kts | 301° |
| 2026-05-04 12:51 | 37.32461 | 29.76135 | 28913 ft | 468 kts | 301° |
| 2026-05-04 12:51 | 37.34140 | 29.72614 | 29105 ft | 469 kts | 298° |
| 2026-05-04 12:51 | 37.35601 | 29.68946 | 29331 ft | 470 kts | 296° |
| 2026-05-04 12:52 | 37.37027 | 29.65249 | 29583 ft | 470 kts | 296° |
| 2026-05-04 12:52 | 37.38460 | 29.61545 | 29813 ft | 470 kts | 296° |
| 2026-05-04 12:52 | 37.39892 | 29.57849 | 30119 ft | 469 kts | 296° |
| 2026-05-04 12:52 | 37.41317 | 29.54164 | 30420 ft | 467 kts | 296° |
| 2026-05-04 12:53 | 37.42728 | 29.50494 | 30726 ft | 465 kts | 295° |
| 2026-05-04 12:53 | 37.44131 | 29.46826 | 30991 ft | 465 kts | 295° |
| 2026-05-04 12:53 | 37.45528 | 29.43168 | 31292 ft | 463 kts | 295° |
| 2026-05-04 12:53 | 37.46913 | 29.39520 | 31582 ft | 462 kts | 295° |
| 2026-05-04 12:54 | 37.48277 | 29.35864 | 31836 ft | 461 kts | 295° |
| 2026-05-04 12:54 | 37.49626 | 29.32200 | 32095 ft | 460 kts | 295° |
| 2026-05-04 12:54 | 37.50964 | 29.28535 | 32339 ft | 460 kts | 294° |
| 2026-05-04 12:54 | 37.52287 | 29.24908 | 32518 ft | 462 kts | 294° |
| 2026-05-04 12:55 | 37.53630 | 29.21230 | 32655 ft | 464 kts | 294° |
| 2026-05-04 12:55 | 37.54980 | 29.17538 | 32903 ft | 463 kts | 295° |
| 2026-05-04 12:55 | 37.56333 | 29.13853 | 33123 ft | 463 kts | 295° |
| 2026-05-04 12:55 | 37.57680 | 29.10181 | 33381 ft | 461 kts | 295° |
| 2026-05-04 12:56 | 37.59021 | 29.06522 | 33668 ft | 459 kts | 295° |
| 2026-05-04 12:56 | 37.60358 | 29.02865 | 33955 ft | 458 kts | 295° |
| 2026-05-04 12:56 | 37.61690 | 28.99217 | 34187 ft | 457 kts | 295° |
| 2026-05-04 12:56 | 37.63019 | 28.95579 | 34414 ft | 456 kts | 294° |
| 2026-05-04 12:57 | 37.64342 | 28.91944 | 34636 ft | 456 kts | 294° |
| 2026-05-04 12:57 | 37.65668 | 28.88295 | 34836 ft | 456 kts | 294° |
| 2026-05-04 12:57 | 37.66988 | 28.84661 | 35041 ft | 456 kts | 294° |
| 2026-05-04 12:57 | 37.68306 | 28.81025 | 35284 ft | 454 kts | 294° |
| 2026-05-04 12:58 | 37.69619 | 28.77403 | 35497 ft | 453 kts | 294° |
| 2026-05-04 12:58 | 37.70926 | 28.73792 | 35712 ft | 452 kts | 294° |
| 2026-05-04 12:58 | 37.72229 | 28.70184 | 35904 ft | 451 kts | 294° |
| 2026-05-04 12:59 | 37.74816 | 28.62946 | 36011 ft | 455 kts | 294° |
| 2026-05-04 12:59 | 37.77407 | 28.55593 | 36009 ft | 460 kts | 294° |
| 2026-05-04 13:00 | 37.80025 | 28.48171 | 36010 ft | 465 kts | 294° |
| 2026-05-04 13:00 | 37.82677 | 28.40679 | 36011 ft | 468 kts | 294° |
| 2026-05-04 13:01 | 37.85309 | 28.33219 | 36011 ft | 465 kts | 294° |
| 2026-05-04 13:01 | 37.87936 | 28.25758 | 36012 ft | 464 kts | 294° |
| 2026-05-04 13:02 | 37.90546 | 28.18283 | 36014 ft | 464 kts | 294° |
| 2026-05-04 13:02 | 37.93158 | 28.10789 | 36008 ft | 465 kts | 294° |
| 2026-05-04 13:03 | 37.95779 | 28.03275 | 36005 ft | 466 kts | 294° |
| 2026-05-04 13:03 | 37.98395 | 27.95739 | 36002 ft | 467 kts | 294° |
| 2026-05-04 13:04 | 38.01049 | 27.88196 | 35991 ft | 469 kts | 295° |
| 2026-05-04 13:04 | 38.03977 | 27.80776 | 35992 ft | 470 kts | 296° |
| 2026-05-04 13:05 | 38.06757 | 27.73319 | 36006 ft | 470 kts | 294° |
| 2026-05-04 13:05 | 38.09366 | 27.65736 | 36028 ft | 468 kts | 293° |
| 2026-05-04 13:06 | 38.11940 | 27.58143 | 36034 ft | 467 kts | 293° |
| 2026-05-04 13:06 | 38.14544 | 27.50595 | 36033 ft | 465 kts | 294° |
| 2026-05-04 13:07 | 38.17164 | 27.43078 | 36029 ft | 465 kts | 294° |
| 2026-05-04 13:07 | 38.19777 | 27.35561 | 36026 ft | 464 kts | 294° |
| 2026-05-04 13:08 | 38.22370 | 27.28049 | 36024 ft | 464 kts | 294° |
| 2026-05-04 13:08 | 38.24966 | 27.20524 | 36021 ft | 464 kts | 293° |
| 2026-05-04 13:09 | 38.27552 | 27.13004 | 36019 ft | 464 kts | 293° |
| 2026-05-04 13:09 | 38.30136 | 27.05461 | 36012 ft | 464 kts | 295° |
| 2026-05-04 13:10 | 38.33740 | 26.98675 | 35994 ft | 465 kts | 314° |
| 2026-05-04 13:10 | 38.38585 | 26.93171 | 36000 ft | 466 kts | 319° |
| 2026-05-04 13:11 | 38.43484 | 26.87773 | 36013 ft | 465 kts | 319° |
| 2026-05-04 13:11 | 38.48368 | 26.82359 | 36019 ft | 465 kts | 319° |
| 2026-05-04 13:12 | 38.53218 | 26.76976 | 36021 ft | 464 kts | 319° |
| 2026-05-04 13:12 | 38.58091 | 26.71559 | 36021 ft | 464 kts | 319° |
| 2026-05-04 13:13 | 38.62955 | 26.66138 | 36019 ft | 464 kts | 319° |
| 2026-05-04 13:13 | 38.67828 | 26.60694 | 36018 ft | 464 kts | 319° |
| 2026-05-04 13:14 | 38.72688 | 26.55265 | 36017 ft | 464 kts | 319° |
| 2026-05-04 13:14 | 38.77550 | 26.49822 | 36017 ft | 464 kts | 319° |
| 2026-05-04 13:15 | 38.82401 | 26.44376 | 36016 ft | 464 kts | 319° |
| 2026-05-04 13:15 | 38.87304 | 26.38997 | 36015 ft | 464 kts | 320° |
| 2026-05-04 13:16 | 38.92305 | 26.33762 | 36014 ft | 464 kts | 321° |
| 2026-05-04 13:16 | 38.97308 | 26.28530 | 36013 ft | 464 kts | 320° |
| 2026-05-04 13:17 | 39.02278 | 26.23240 | 36014 ft | 464 kts | 320° |
| 2026-05-04 13:17 | 39.07234 | 26.17931 | 36013 ft | 464 kts | 320° |
| 2026-05-04 13:18 | 39.12201 | 26.12617 | 36013 ft | 464 kts | 320° |
| 2026-05-04 13:18 | 39.17178 | 26.07293 | 36010 ft | 465 kts | 320° |
| 2026-05-04 13:19 | 39.22152 | 26.01953 | 36008 ft | 465 kts | 320° |
| 2026-05-04 13:19 | 39.27130 | 25.96594 | 36012 ft | 466 kts | 320° |
| 2026-05-04 13:20 | 39.32053 | 25.91261 | 36020 ft | 465 kts | 319° |
| 2026-05-04 13:20 | 39.36950 | 25.85807 | 36022 ft | 465 kts | 319° |
| 2026-05-04 13:21 | 39.41820 | 25.80316 | 36022 ft | 464 kts | 319° |
| 2026-05-04 13:21 | 39.46703 | 25.74827 | 36020 ft | 464 kts | 319° |
| 2026-05-04 13:22 | 39.51585 | 25.69363 | 36019 ft | 464 kts | 319° |
| 2026-05-04 13:22 | 39.56467 | 25.63885 | 36018 ft | 464 kts | 319° |
| 2026-05-04 13:23 | 39.61349 | 25.58405 | 36017 ft | 464 kts | 319° |
| 2026-05-04 13:23 | 39.66231 | 25.52915 | 36016 ft | 464 kts | 319° |
| 2026-05-04 13:24 | 39.71091 | 25.47418 | 36016 ft | 464 kts | 319° |
| 2026-05-04 13:24 | 39.75138 | 25.42835 | 36016 ft | 464 kts | 319° |
| 2026-05-04 13:25 | 39.82433 | 25.34566 | 36017 ft | 464 kts | 319° |
| 2026-05-04 13:25 | 39.87298 | 25.29032 | 36016 ft | 464 kts | 319° |
| 2026-05-04 13:26 | 39.92043 | 25.23324 | 36017 ft | 464 kts | 310° |
| 2026-05-04 13:26 | 39.95854 | 25.16532 | 36016 ft | 464 kts | 305° |
| 2026-05-04 13:27 | 39.99555 | 25.09715 | 36014 ft | 464 kts | 305° |
| 2026-05-04 13:27 | 40.03288 | 25.02852 | 36016 ft | 464 kts | 305° |
| 2026-05-04 13:28 | 40.07006 | 24.95974 | 36017 ft | 464 kts | 305° |
| 2026-05-04 13:28 | 40.10745 | 24.89043 | 36018 ft | 464 kts | 305° |
| 2026-05-04 13:29 | 40.14431 | 24.82185 | 36018 ft | 464 kts | 305° |
| 2026-05-04 13:29 | 40.18133 | 24.75272 | 36018 ft | 464 kts | 304° |
| 2026-05-04 13:30 | 40.21828 | 24.68360 | 36017 ft | 464 kts | 305° |
| 2026-05-04 13:30 | 40.25527 | 24.61444 | 36018 ft | 464 kts | 304° |
| 2026-05-04 13:31 | 40.29221 | 24.54517 | 36019 ft | 464 kts | 304° |
| 2026-05-04 13:31 | 40.32919 | 24.47572 | 36020 ft | 464 kts | 304° |
| 2026-05-04 13:32 | 40.36600 | 24.40623 | 36021 ft | 464 kts | 304° |
| 2026-05-04 13:32 | 40.40279 | 24.33667 | 36023 ft | 464 kts | 304° |
| 2026-05-04 13:33 | 40.43960 | 24.26689 | 36023 ft | 464 kts | 304° |
| 2026-05-04 13:33 | 40.47631 | 24.19724 | 36022 ft | 464 kts | 304° |
| 2026-05-04 13:34 | 40.51306 | 24.12754 | 36020 ft | 464 kts | 304° |
| 2026-05-04 13:34 | 40.54972 | 24.05778 | 36021 ft | 464 kts | 304° |
| 2026-05-04 13:35 | 40.60429 | 23.95315 | 36023 ft | 464 kts | 304° |
| 2026-05-04 13:36 | 40.64080 | 23.88303 | 36023 ft | 464 kts | 304° |
| 2026-05-04 13:36 | 40.67740 | 23.81292 | 36022 ft | 464 kts | 304° |
| 2026-05-04 13:37 | 40.71391 | 23.74280 | 36022 ft | 464 kts | 304° |
| 2026-05-04 13:37 | 40.75034 | 23.67243 | 36018 ft | 464 kts | 304° |
| 2026-05-04 13:38 | 40.78675 | 23.60193 | 35998 ft | 466 kts | 304° |
| 2026-05-04 13:38 | 40.82323 | 23.53112 | 35997 ft | 467 kts | 304° |
| 2026-05-04 13:39 | 40.85978 | 23.46013 | 36006 ft | 468 kts | 304° |
| 2026-05-04 13:39 | 40.89628 | 23.38899 | 36017 ft | 468 kts | 304° |
| 2026-05-04 13:40 | 40.93271 | 23.31768 | 36019 ft | 468 kts | 304° |
| 2026-05-04 13:40 | 40.96911 | 23.24637 | 36024 ft | 468 kts | 304° |
| 2026-05-04 13:41 | 41.00558 | 23.17504 | 36024 ft | 467 kts | 304° |
| 2026-05-04 13:41 | 41.04196 | 23.10364 | 36020 ft | 467 kts | 304° |
| 2026-05-04 13:42 | 41.09641 | 22.99653 | 36021 ft | 467 kts | 306° |
| 2026-05-04 13:42 | 41.13759 | 22.93061 | 36021 ft | 467 kts | 310° |
| 2026-05-04 13:43 | 41.17956 | 22.86485 | 36022 ft | 467 kts | 310° |
| 2026-05-04 13:43 | 41.22161 | 22.79882 | 36024 ft | 467 kts | 310° |
| 2026-05-04 13:44 | 41.26369 | 22.73298 | 36029 ft | 467 kts | 311° |
| 2026-05-04 13:44 | 41.30726 | 22.66889 | 36027 ft | 467 kts | 313° |
| 2026-05-04 13:45 | 41.35156 | 22.60554 | 36025 ft | 467 kts | 313° |
| 2026-05-04 13:45 | 41.39534 | 22.54209 | 36023 ft | 468 kts | 312° |
| 2026-05-04 13:46 | 41.43905 | 22.47772 | 36021 ft | 468 kts | 311° |
| 2026-05-04 13:46 | 41.48266 | 22.41304 | 36016 ft | 469 kts | 311° |
| 2026-05-04 13:47 | 41.52642 | 22.34833 | 36025 ft | 469 kts | 312° |
| 2026-05-04 13:47 | 41.57016 | 22.28373 | 36029 ft | 469 kts | 312° |
| 2026-05-04 13:48 | 41.61387 | 22.21895 | 36029 ft | 469 kts | 311° |
| 2026-05-04 13:48 | 41.65743 | 22.15410 | 36029 ft | 468 kts | 311° |
| 2026-05-04 13:49 | 41.70092 | 22.08923 | 36031 ft | 468 kts | 311° |
| 2026-05-04 13:49 | 41.74439 | 22.02442 | 36031 ft | 467 kts | 311° |
| 2026-05-04 13:50 | 41.78771 | 21.95960 | 36029 ft | 467 kts | 311° |
| 2026-05-04 13:50 | 41.83098 | 21.89464 | 36028 ft | 467 kts | 311° |
| 2026-05-04 13:51 | 41.87416 | 21.82957 | 36024 ft | 467 kts | 311° |
| 2026-05-04 13:51 | 41.91752 | 21.76438 | 36021 ft | 468 kts | 311° |
| 2026-05-04 13:52 | 41.98221 | 21.66679 | 36026 ft | 467 kts | 311° |
| 2026-05-04 13:53 | 42.02560 | 21.60102 | 36024 ft | 467 kts | 311° |
| 2026-05-04 13:53 | 42.06846 | 21.53600 | 36016 ft | 468 kts | 311° |
| 2026-05-04 13:54 | 42.13318 | 21.43741 | 36011 ft | 469 kts | 311° |
| 2026-05-04 13:55 | 42.19763 | 21.33782 | 36007 ft | 470 kts | 310° |
| 2026-05-04 13:55 | 42.26105 | 21.23652 | 36022 ft | 470 kts | 310° |
| 2026-05-04 13:56 | 42.30322 | 21.16913 | 36028 ft | 470 kts | 310° |
| 2026-05-04 13:57 | 42.36655 | 21.06813 | 36025 ft | 469 kts | 310° |
| 2026-05-04 13:58 | 42.45076 | 20.93319 | 36015 ft | 469 kts | 310° |
| 2026-05-04 13:58 | 42.51385 | 20.83166 | 36012 ft | 470 kts | 310° |
| 2026-05-04 13:59 | 42.55585 | 20.76388 | 36020 ft | 469 kts | 310° |
| 2026-05-04 14:00 | 42.61871 | 20.66216 | 36025 ft | 469 kts | 310° |
| 2026-05-04 14:00 | 42.68141 | 20.56034 | 36028 ft | 468 kts | 309° |
| 2026-05-04 14:01 | 42.72317 | 20.49241 | 36028 ft | 468 kts | 309° |
| 2026-05-04 14:02 | 42.78578 | 20.39028 | 36025 ft | 468 kts | 309° |
| 2026-05-04 14:02 | 42.82754 | 20.32191 | 35992 ft | 471 kts | 309° |
| 2026-05-04 14:03 | 42.86948 | 20.25311 | 36001 ft | 473 kts | 309° |
| 2026-05-04 14:03 | 42.91143 | 20.18407 | 36009 ft | 473 kts | 309° |
| 2026-05-04 14:04 | 42.97423 | 20.08063 | 36015 ft | 474 kts | 309° |
| 2026-05-04 14:04 | 43.01653 | 20.01080 | 36020 ft | 474 kts | 309° |
| 2026-05-04 14:05 | 43.07916 | 19.90669 | 36032 ft | 474 kts | 309° |
| 2026-05-04 14:06 | 43.12103 | 19.83705 | 36031 ft | 474 kts | 309° |
| 2026-05-04 14:06 | 43.15599 | 19.77866 | 36033 ft | 473 kts | 309° |
| 2026-05-04 14:07 | 43.19765 | 19.70900 | 36036 ft | 472 kts | 309° |
| 2026-05-04 14:07 | 43.23913 | 19.63946 | 36032 ft | 471 kts | 309° |
| 2026-05-04 14:08 | 43.28044 | 19.57022 | 36025 ft | 472 kts | 309° |
| 2026-05-04 14:08 | 43.32192 | 19.50038 | 36020 ft | 473 kts | 309° |
| 2026-05-04 14:09 | 43.38419 | 19.39505 | 36024 ft | 474 kts | 309° |
| 2026-05-04 14:10 | 43.44652 | 19.28951 | 36027 ft | 474 kts | 309° |
| 2026-05-04 14:10 | 43.48806 | 19.21906 | 36026 ft | 473 kts | 309° |
| 2026-05-04 14:11 | 43.53021 | 19.14950 | 36028 ft | 473 kts | 315° |
| 2026-05-04 14:11 | 43.60744 | 19.06477 | 36027 ft | 473 kts | 322° |
| 2026-05-04 14:12 | 43.65971 | 19.00971 | 36032 ft | 472 kts | 322° |
| 2026-05-04 14:13 | 43.73757 | 18.92732 | 36031 ft | 472 kts | 322° |
| 2026-05-04 14:13 | 43.78967 | 18.87208 | 36033 ft | 472 kts | 322° |
| 2026-05-04 14:14 | 43.84171 | 18.81669 | 36031 ft | 472 kts | 322° |
| 2026-05-04 14:14 | 43.91985 | 18.73331 | 36032 ft | 472 kts | 322° |
| 2026-05-04 14:15 | 44.02394 | 18.62182 | 36031 ft | 472 kts | 322° |
| 2026-05-04 14:16 | 44.10183 | 18.53805 | 36030 ft | 472 kts | 322° |
| 2026-05-04 14:17 | 44.17973 | 18.45408 | 36032 ft | 472 kts | 322° |
| 2026-05-04 14:18 | 44.25744 | 18.36996 | 36032 ft | 471 kts | 322° |
| 2026-05-04 14:19 | 44.36096 | 18.25747 | 36025 ft | 471 kts | 322° |
| 2026-05-04 14:19 | 44.41262 | 18.20114 | 36031 ft | 470 kts | 322° |
| 2026-05-04 14:20 | 44.46416 | 18.14484 | 36033 ft | 469 kts | 322° |
| 2026-05-04 14:20 | 44.51549 | 18.08856 | 36033 ft | 468 kts | 322° |
| 2026-05-04 14:21 | 44.59212 | 18.00446 | 36031 ft | 468 kts | 322° |
| 2026-05-04 14:21 | 44.64331 | 17.94811 | 36032 ft | 468 kts | 321° |
| 2026-05-04 14:22 | 44.69439 | 17.89161 | 36032 ft | 467 kts | 321° |
| 2026-05-04 14:22 | 44.74554 | 17.83495 | 36030 ft | 467 kts | 321° |
| 2026-05-04 14:23 | 44.82216 | 17.75011 | 36028 ft | 467 kts | 321° |
| 2026-05-04 14:24 | 44.87308 | 17.69336 | 36027 ft | 466 kts | 321° |
| 2026-05-04 14:24 | 44.92395 | 17.63649 | 36026 ft | 466 kts | 321° |
| 2026-05-04 14:25 | 44.97472 | 17.57965 | 36025 ft | 466 kts | 321° |
| 2026-05-04 14:25 | 45.05088 | 17.49412 | 36026 ft | 466 kts | 321° |
| 2026-05-04 14:26 | 45.10160 | 17.43699 | 36026 ft | 465 kts | 319° |
| 2026-05-04 14:26 | 45.14364 | 17.36816 | 36016 ft | 461 kts | 301° |
| 2026-05-04 14:27 | 45.15832 | 17.32810 | 35729 ft | 455 kts | 294° |
| 2026-05-04 14:27 | 45.17145 | 17.28752 | 35308 ft | 452 kts | 294° |
| 2026-05-04 14:27 | 45.18444 | 17.24713 | 34881 ft | 451 kts | 294° |
| 2026-05-04 14:27 | 45.19748 | 17.20659 | 34444 ft | 451 kts | 294° |
| 2026-05-04 14:28 | 45.21050 | 17.16608 | 34021 ft | 452 kts | 294° |
| 2026-05-04 14:28 | 45.22353 | 17.12552 | 33604 ft | 453 kts | 294° |
| 2026-05-04 14:28 | 45.23659 | 17.08479 | 33184 ft | 454 kts | 294° |
| 2026-05-04 14:28 | 45.24963 | 17.04398 | 32755 ft | 455 kts | 294° |
| 2026-05-04 14:29 | 45.27573 | 16.96206 | 31902 ft | 456 kts | 294° |
| 2026-05-04 14:29 | 45.30193 | 16.87972 | 31066 ft | 458 kts | 294° |
| 2026-05-04 14:30 | 45.31503 | 16.83849 | 30617 ft | 459 kts | 294° |
| 2026-05-04 14:30 | 45.32817 | 16.79706 | 30203 ft | 460 kts | 294° |
| 2026-05-04 14:30 | 45.35446 | 16.71402 | 29358 ft | 462 kts | 294° |
| 2026-05-04 14:31 | 45.36762 | 16.67232 | 28924 ft | 461 kts | 294° |
| 2026-05-04 14:31 | 45.39361 | 16.59001 | 28078 ft | 456 kts | 294° |
| 2026-05-04 14:32 | 45.41933 | 16.50813 | 27232 ft | 450 kts | 294° |
| 2026-05-04 14:32 | 45.43203 | 16.46751 | 26800 ft | 447 kts | 294° |
| 2026-05-04 14:32 | 45.44463 | 16.42720 | 26374 ft | 444 kts | 294° |
| 2026-05-04 14:32 | 45.45711 | 16.38719 | 25950 ft | 441 kts | 294° |
| 2026-05-04 14:33 | 45.46954 | 16.34733 | 25522 ft | 438 kts | 294° |
| 2026-05-04 14:33 | 45.48186 | 16.30772 | 25098 ft | 436 kts | 294° |
| 2026-05-04 14:33 | 45.49409 | 16.26833 | 24673 ft | 433 kts | 294° |
| 2026-05-04 14:33 | 45.50621 | 16.22924 | 24248 ft | 430 kts | 294° |
| 2026-05-04 14:34 | 45.51825 | 16.19042 | 23824 ft | 427 kts | 294° |
| 2026-05-04 14:34 | 45.53021 | 16.15179 | 23398 ft | 425 kts | 294° |
| 2026-05-04 14:34 | 45.54209 | 16.11330 | 22971 ft | 422 kts | 294° |
| 2026-05-04 14:34 | 45.55387 | 16.07505 | 22538 ft | 419 kts | 294° |
| 2026-05-04 14:35 | 45.56557 | 16.03702 | 22112 ft | 417 kts | 294° |
| 2026-05-04 14:35 | 45.57717 | 15.99930 | 21689 ft | 414 kts | 294° |
| 2026-05-04 14:35 | 45.58872 | 15.96165 | 21266 ft | 411 kts | 293° |
| 2026-05-04 14:35 | 45.60017 | 15.92429 | 20840 ft | 409 kts | 293° |
| 2026-05-04 14:36 | 45.61152 | 15.88728 | 20414 ft | 406 kts | 293° |
| 2026-05-04 14:36 | 45.62280 | 15.85039 | 19989 ft | 403 kts | 293° |
| 2026-05-04 14:36 | 45.63399 | 15.81371 | 19564 ft | 401 kts | 293° |
| 2026-05-04 14:36 | 45.64507 | 15.77733 | 19138 ft | 398 kts | 293° |
| 2026-05-04 14:37 | 45.65607 | 15.74112 | 18701 ft | 396 kts | 293° |
| 2026-05-04 14:37 | 45.66693 | 15.70520 | 18283 ft | 393 kts | 293° |
| 2026-05-04 14:37 | 45.67774 | 15.66943 | 17863 ft | 391 kts | 293° |
| 2026-05-04 14:37 | 45.68839 | 15.63429 | 17442 ft | 388 kts | 293° |
| 2026-05-04 14:38 | 45.69912 | 15.59893 | 17014 ft | 386 kts | 293° |
| 2026-05-04 14:38 | 45.70979 | 15.56377 | 16580 ft | 384 kts | 293° |
| 2026-05-04 14:38 | 45.72035 | 15.52884 | 16156 ft | 382 kts | 293° |
| 2026-05-04 14:38 | 45.73086 | 15.49400 | 15736 ft | 380 kts | 293° |
| 2026-05-04 14:39 | 45.74127 | 15.45935 | 15322 ft | 377 kts | 293° |
| 2026-05-04 14:39 | 45.75157 | 15.42497 | 14883 ft | 375 kts | 293° |
| 2026-05-04 14:39 | 45.76181 | 15.39073 | 14459 ft | 373 kts | 293° |
| 2026-05-04 14:40 | 45.78680 | 15.32613 | 13605 ft | 369 kts | 306° |
| 2026-05-04 14:40 | 45.80195 | 15.29665 | 13200 ft | 366 kts | 306° |
| 2026-05-04 14:40 | 45.81694 | 15.26741 | 12799 ft | 363 kts | 306° |
| 2026-05-04 14:40 | 45.83185 | 15.23822 | 12392 ft | 361 kts | 306° |
| 2026-05-04 14:41 | 45.84659 | 15.20931 | 11998 ft | 359 kts | 306° |
| 2026-05-04 14:41 | 45.86124 | 15.18048 | 11596 ft | 357 kts | 306° |
| 2026-05-04 14:41 | 45.89009 | 15.12366 | 10796 ft | 345 kts | 306° |
| 2026-05-04 14:42 | 45.91787 | 15.06884 | 9990 ft | 334 kts | 306° |
| 2026-05-04 14:42 | 45.93140 | 15.04212 | 9596 ft | 328 kts | 306° |
| 2026-05-04 14:42 | 45.94463 | 15.01586 | 9258 ft | 321 kts | 305° |
| 2026-05-04 14:43 | 45.95738 | 14.98988 | 8938 ft | 314 kts | 304° |
| 2026-05-04 14:43 | 45.96973 | 14.96434 | 8612 ft | 309 kts | 304° |
| 2026-05-04 14:43 | 45.98186 | 14.93915 | 8286 ft | 303 kts | 304° |
| 2026-05-04 14:43 | 45.99372 | 14.91452 | 7966 ft | 298 kts | 304° |
| 2026-05-04 14:44 | 46.00508 | 14.89091 | 7646 ft | 293 kts | 304° |
| 2026-05-04 14:44 | 46.01659 | 14.86704 | 7318 ft | 288 kts | 304° |
| 2026-05-04 14:44 | 46.02789 | 14.84361 | 7039 ft | 281 kts | 304° |
| 2026-05-04 14:44 | 46.03892 | 14.82073 | 6787 ft | 276 kts | 304° |
| 2026-05-04 14:45 | 46.04982 | 14.79810 | 6539 ft | 274 kts | 304° |
| 2026-05-04 14:45 | 46.06046 | 14.77576 | 6208 ft | 269 kts | 304° |
| 2026-05-04 14:45 | 46.07102 | 14.75420 | 5858 ft | 255 kts | 306° |
| 2026-05-04 14:45 | 46.08128 | 14.73431 | 5525 ft | 240 kts | 306° |
| 2026-05-04 14:46 | 46.09099 | 14.71560 | 5217 ft | 229 kts | 306° |
| 2026-05-04 14:46 | 46.10047 | 14.69727 | 4917 ft | 227 kts | 306° |
| 2026-05-04 14:46 | 46.10986 | 14.67908 | 4605 ft | 226 kts | 306° |
| 2026-05-04 14:46 | 46.11606 | 14.66706 | 4418 ft | 225 kts | 306° |
| 2026-05-04 14:47 | 46.12538 | 14.64898 | 4116 ft | 224 kts | 306° |
| 2026-05-04 14:47 | 46.13464 | 14.63102 | 3825 ft | 223 kts | 306° |
| 2026-05-04 14:47 | 46.14384 | 14.61315 | 3528 ft | 218 kts | 306° |
| 2026-05-04 14:47 | 46.15263 | 14.59607 | 3244 ft | 207 kts | 306° |
| 2026-05-04 14:48 | 46.16093 | 14.57995 | 3014 ft | 193 kts | 306° |
| 2026-05-04 14:48 | 46.16873 | 14.56478 | 2733 ft | 182 kts | 306° |
| 2026-05-04 14:48 | 46.17603 | 14.55057 | 2491 ft | 171 kts | 306° |
| 2026-05-04 14:48 | 46.18283 | 14.53732 | 2299 ft | 156 kts | 306° |
| 2026-05-04 14:49 | 46.18907 | 14.52517 | 2073 ft | 147 kts | 306° |
| 2026-05-04 14:49 | 46.19505 | 14.51351 | 1878 ft | 143 kts | 306° |
| 2026-05-04 14:49 | 46.20093 | 14.50205 | 1692 ft | 141 kts | 306° |
| 2026-05-04 14:49 | 46.20674 | 14.49063 | 1512 ft | 141 kts | 306° |
| 2026-05-04 14:50 | 46.21258 | 14.47924 | 1324 ft | 141 kts | 306° |
| 2026-05-04 14:50 | 46.21836 | 14.46804 | 1227 ft | 133 kts | 306° |
| 2026-05-04 14:50 | 46.22291 | 14.45909 | 1240 ft | 85 kts | 306° |
| 2026-05-04 14:50 | 46.22544 | 14.45417 | 1249 ft | 39 kts | 306° |
| 2026-05-04 14:51 | 46.22679 | 14.45152 | 1257 ft | 31 kts | 306° |
| 2026-05-04 14:51 | 46.22801 | 14.44914 | 1268 ft | 29 kts | 306° |
| 2026-05-04 14:51 | 46.22918 | 14.44685 | 1267 ft | 28 kts | 307° |
| 2026-05-04 14:51 | 46.23043 | 14.44442 | 1273 ft | 33 kts | 306° |
| 2026-05-04 14:52 | 46.23169 | 14.44196 | 1279 ft | 27 kts | 307° |
| 2026-05-04 14:52 | 46.23324 | 14.44077 | 1287 ft | 24 kts | 360° |
| 2026-05-04 14:52 | 46.23394 | 14.44213 | 1284 ft | 18 kts | 112° |
| 2026-05-04 14:52 | 46.23328 | 14.44348 | 1281 ft | 15 kts | 126° |
| 2026-05-04 14:53 | 46.23256 | 14.44489 | 1274 ft | 20 kts | 126° |
| 2026-05-04 14:53 | 46.23174 | 14.44648 | 1274 ft | 18 kts | 127° |
| 2026-05-04 14:53 | 46.23097 | 14.44799 | 1267 ft | 20 kts | 126° |
| 2026-05-04 14:53 | 46.23010 | 14.44971 | 1268 ft | 23 kts | 127° |
| 2026-05-04 14:54 | 46.22968 | 14.45110 | 1269 ft | 14 kts | 61° |
| 2026-05-04 14:54 | 46.23023 | 14.45170 | 1259 ft | 3 kts | 36° |
| 2026-05-04 14:54 | 46.23041 | 14.45189 | 1259 ft | 3 kts | 39° |
| 2026-05-04 14:54 | 46.23047 | 14.45216 | 1261 ft | 2 kts | 92° |
| 2026-05-04 14:55 | 46.23037 | 14.45243 | 1267 ft | 4 kts | 124° |
| 2026-05-04 14:55 | 46.23022 | 14.45275 | 1263 ft | 5 kts | 126° |
| 2026-05-04 14:55 | 46.23005 | 14.45317 | 1258 ft | 4 kts | 96° |
| 2026-05-04 14:55 | 46.23020 | 14.45340 | 1263 ft | 3 kts | 37° |
| 2026-05-04 14:56 | 46.23034 | 14.45354 | 1263 ft | 2 kts | 36° |
| 2026-05-04 14:56 | 46.23043 | 14.45363 | 1258 ft | 1 kts | 36° |
| 2026-05-04 14:56 | 46.23052 | 14.45373 | 1258 ft | 1 kts | 36° |
| 2026-05-04 14:56 | 46.23053 | 14.45375 | 1258 ft | 0 kts | 36° |